Latest Coastal Weather Observations for Bunbury

IDW60701

Issued at 11:55 am WST Monday 15 September 2014 (issued every 10 minutes, with the page automatically refreshed every 10 minutes)

About coastal observations | Map of coastal stations | Coastal observations for WA | Marine services | Other Formats
Station Details ID: 009965 Name: BUNBURY Lat: -33.36 Lon: 115.64 Height: 5.2 m
Data from the previous 72 hours. | See also: Recent months at Bunbury
Date/Time
WST
Temp

°C
Wind Pressure Rain
since 9am
mm
Weather Cloud Vis
km
Sea
Height
m
Swell
Dir
 
Speed
knots
Gust
knots
hPa Trend Height
m
Period
s
Dir
15/11:30am 17.8 SSE 6 12 1024.4 - 0.0 - - - - - - -
15/11:00am 17.7 SE 8 12 1024.6 - 0.0 - - - - - - -
15/10:30am 17.7 SE 7 12 1024.8 - 0.0 - - - - - - -
15/10:00am 16.8 SSE 7 12 1025.1 - 0.0 - - - - - - -
15/09:30am 16.5 SSE 8 11 1025.4 - 0.0 - - - - - - -
15/09:00am 15.7 SE 8 12 1025.7 - 0.0 - - - - - - -
15/08:30am 14.4 SE 8 12 1025.7 - 0.0 - - - - - - -
15/08:00am 13.1 SSE 5 7 1026.0 - 0.0 - - - - - - -
15/07:30am 12.2 SE 5 8 1025.8 - 0.0 - - - - - - -
15/07:00am 11.4 S 5 7 1025.6 - 0.0 - - - - - - -
15/06:30am 10.8 SSE 5 7 1025.3 - 0.0 - - - - - - -
15/06:00am 10.8 S 5 8 1025.3 - 0.0 - - - - - - -
15/05:30am 10.8 S 4 6 1025.2 - 0.0 - - - - - - -
15/05:00am 10.9 S 3 5 1025.0 - 0.0 - - - - - - -
15/04:30am 11.2 S 5 7 1024.8 - 0.0 - - - - - - -
15/04:00am 11.3 SSE 6 9 1024.5 - 0.0 - - - - - - -
15/03:30am 12.0 SSE 8 11 1024.6 - 0.0 - - - - - - -
15/03:00am 12.1 S 8 11 1024.6 - 0.0 - - - - - - -
15/02:30am 12.1 S 7 10 1024.4 - 0.0 - - - - - - -
15/02:00am 12.1 S 7 9 1024.4 - 0.0 - - - - - - -
15/01:30am 12.2 S 6 8 1024.6 - 0.0 - - - - - - -
15/01:00am 12.6 S 6 8 1024.6 - 0.0 - - - - - - -
15/12:30am 12.8 S 5 7 1024.5 - 0.0 - - - - - - -
15/12:00am 12.6 S 4 7 1024.3 - 0.0 - - - - - - -
 
Date/Time
WST
Temp

°C
Wind Pressure Rain
since 9am
mm
Weather Cloud Vis
km
Sea
Height
m
Swell
Dir
 
Speed
knots
Gust
knots
hPa Trend Height
m
Period
s
Dir
14/11:30pm 12.6 S 6 9 1024.3 - 0.0 - - - - - - -
14/11:00pm 13.3 S 6 8 1024.5 - 0.0 - - - - - - -
14/10:30pm 12.7 S 3 5 1024.7 - 0.0 - - - - - - -
14/10:00pm 12.8 S 5 7 1024.7 - 0.0 - - - - - - -
14/09:30pm 13.1 S 5 7 1024.8 - 0.0 - - - - - - -
14/09:00pm 14.0 S 6 10 1025.1 - 0.0 - - - - - - -
14/08:30pm 14.0 S 6 9 1025.0 - 0.0 - - - - - - -
14/08:00pm 15.0 S 6 13 1024.5 - 0.0 - - - - - - -
14/07:30pm 16.3 S 6 10 1024.0 - 0.0 - - - - - - -
14/07:00pm 15.9 WNW 1 4 1023.7 - 0.0 - - - - - - -
14/06:30pm 15.7 W 1 2 1023.4 - 0.0 - - - - - - -
14/06:00pm 17.1 WNW 3 4 1023.2 - 0.0 - - - - - - -
14/05:30pm 18.0 WNW 4 6 1023.2 - 0.0 - - - - - - -
14/05:00pm 18.4 NW 4 6 1022.9 - 0.0 - - - - - - -
14/04:30pm 18.5 NW 6 8 1022.6 - 0.0 - - - - - - -
14/04:00pm 19.2 WNW 7 9 1022.5 - 0.0 - - - - - - -
14/03:30pm 19.1 WNW 7 10 1022.6 - 0.0 - - - - - - -
14/03:00pm 19.5 NW 8 11 1022.4 - 0.0 - - - - - - -
14/02:30pm 19.5 NW 8 12 1022.4 - 0.0 - - - - - - -
14/02:00pm 18.9 NW 8 12 1022.4 - 0.0 - - - - - - -
14/01:30pm 19.0 NW 7 11 1022.4 - 0.0 - - - - - - -
14/01:00pm 19.9 NNW 7 12 1022.5 - 0.0 - - - - - - -
14/12:30pm 19.4 NNW 7 10 1022.8 - 0.0 - - - - - - -
14/12:00pm 18.5 NNW 7 10 1023.0 - 0.0 - - - - - - -
14/11:30am 19.5 NNW 6 10 1022.9 - 0.0 - - - - - - -
14/11:00am 19.0 N 6 10 1023.0 - 0.0 - - - - - - -
14/10:30am 18.5 N 6 9 1023.0 - 0.0 - - - - - - -
14/10:00am 18.1 N 6 9 1023.0 - 0.0 - - - - - - -
14/09:30am 17.1 NNE 5 7 1023.1 - 0.0 - - - - - - -
14/09:00am 15.7 NE 4 5 1023.2 - 0.0 - - - - - - -
14/08:30am 13.7 ENE 3 4 1023.0 - 0.0 - - - - - - -
14/08:00am 10.8 ENE 2 3 1023.2 - 0.0 - - - - - - -
14/07:30am 8.2 CALM 0 0 1022.8 - 0.0 - - - - - - -
14/07:00am 6.3 CALM 0 0 1022.7 - 0.0 - - - - - - -
14/06:30am 5.9 CALM 0 0 1022.5 - 0.0 - - - - - - -
14/06:00am 5.1 CALM 0 0 1022.4 - 0.0 - - - - - - -
14/05:30am 5.7 CALM 0 0 1022.0 - 0.0 - - - - - - -
14/05:00am 5.3 CALM 0 0 1022.0 - 0.0 - - - - - - -
14/04:30am 4.8 CALM 0 0 1021.9 - 0.0 - - - - - - -
14/04:00am 5.1 CALM 0 0 1021.5 - 0.0 - - - - - - -
14/03:30am 6.7 CALM 0 0 1021.5 - 0.0 - - - - - - -
14/03:00am 5.0 CALM 0 0 1021.7 - 0.0 - - - - - - -
14/02:30am 6.1 CALM 0 0 1021.9 - 0.0 - - - - - - -
14/02:00am 6.3 CALM 0 0 1021.9 - 0.0 - - - - - - -
14/01:30am 6.6 CALM 0 0 1022.3 - 0.0 - - - - - - -
14/01:00am 7.0 CALM 0 0 1022.4 - 0.0 - - - - - - -
14/12:30am 7.3 CALM 0 0 1022.4 - 0.0 - - - - - - -
14/12:00am 7.1 CALM 0 0 1022.7 - 0.0 - - - - - - -
 
Date/Time
WST
Temp

°C
Wind Pressure Rain
since 9am
mm
Weather Cloud Vis
km
Sea
Height
m
Swell
Dir
 
Speed
knots
Gust
knots
hPa Trend Height
m
Period
s
Dir
13/11:30pm 6.9 CALM 0 0 1022.7 - 0.0 - - - - - - -
13/11:00pm 7.3 CALM 0 0 1022.6 - 0.0 - - - - - - -
13/10:30pm 8.1 CALM 0 0 1022.6 - 0.0 - - - - - - -
13/10:00pm 8.5 ESE 2 3 1022.8 - 0.0 - - - - - - -
13/09:30pm 8.3 ESE 3 3 1023.0 - 0.0 - - - - - - -
13/09:00pm 9.6 SE 1 2 1023.1 - 0.0 - - - - - - -
13/08:30pm 10.0 CALM 0 0 1023.0 - 0.0 - - - - - - -
13/08:00pm 12.2 CALM 0 0 1022.8 - 0.0 - - - - - - -
13/07:30pm 12.8 SSW 2 4 1022.6 - 0.0 - - - - - - -
13/07:00pm 13.4 SSW 2 4 1022.4 - 0.0 - - - - - - -
13/06:30pm 14.0 SW 3 4 1022.1 - 0.0 - - - - - - -
13/06:00pm 15.0 WSW 2 4 1021.6 - 0.0 - - - - - - -
13/05:30pm 16.3 W 4 6 1021.3 - 0.0 - - - - - - -
13/05:00pm 17.1 WSW 5 8 1021.2 - 0.0 - - - - - - -
13/04:30pm 17.4 W 5 8 1021.1 - 0.0 - - - - - - -
13/04:00pm 17.7 W 7 12 1021.2 - 0.0 - - - - - - -
13/03:30pm 17.8 W 8 12 1021.2 - 0.0 - - - - - - -
13/03:00pm 18.1 W 8 12 1021.2 - 0.0 - - - - - - -
13/02:30pm 17.6 W 9 12 1021.2 - 0.0 - - - - - - -
13/02:00pm 17.5 W 8 11 1021.1 - 0.0 - - - - - - -
13/01:30pm 17.9 W 7 12 1021.1 - 0.0 - - - - - - -
13/01:00pm 17.2 W 8 11 1021.4 - 0.0 - - - - - - -
13/12:30pm 17.9 W 6 9 1021.5 - 0.0 - - - - - - -
13/12:00pm 18.7 N 3 5 1022.0 - 0.0 - - - - - - -
13/11:30am 18.8 E 3 5 1022.3 - 0.0 - - - - - - -
13/11:00am 17.0 S 3 10 1023.0 - 0.0 - - - - - - -
13/10:30am 16.7 SSE 4 7 1023.1 - 0.0 - - - - - - -
13/10:00am 16.0 SSE 4 9 1023.1 - 0.0 - - - - - - -
13/09:30am 15.1 S 5 8 1023.3 - 0.0 - - - - - - -
13/09:00am 14.3 SSW 3 5 1023.2 - 0.0 - - - - - - -
13/08:30am 13.2 SSE 3 4 1023.0 - 0.0 - - - - - - -
13/08:00am 12.2 S 3 5 1022.9 - 0.0 - - - - - - -
13/07:30am 9.5 S 3 4 1023.0 - 0.0 - - - - - - -
13/07:00am 6.8 CALM 0 0 1022.5 - 0.0 - - - - - - -
13/06:30am 6.3 CALM 0 1 1021.7 - 0.0 - - - - - - -
13/06:00am 6.6 SSW 3 3 1021.4 - 0.0 - - - - - - -
13/05:30am 7.0 S 2 2 1021.2 - 0.0 - - - - - - -
13/05:00am 7.7 S 2 3 1021.0 - 0.0 - - - - - - -
13/04:30am 8.3 SSW 2 2 1020.7 - 0.0 - - - - - - -
13/04:00am 8.2 CALM 0 2 1020.6 - 0.0 - - - - - - -
13/03:30am 7.8 CALM 0 0 1020.4 - 0.0 - - - - - - -
13/03:00am 8.7 CALM 0 0 1020.3 - 0.0 - - - - - - -
13/02:30am 9.2 SSW 2 2 1020.4 - 0.0 - - - - - - -
13/02:00am 10.8 S 1 2 1020.2 - 0.0 - - - - - - -
13/01:30am 11.3 S 3 4 1020.3 - 0.0 - - - - - - -
13/01:00am 11.9 S 4 5 1020.4 - 0.0 - - - - - - -
13/12:30am 12.4 S 3 5 1020.4 - 0.0 - - - - - - -
13/12:00am 13.2 S 4 6 1020.1 - 0.0 - - - - - - -
 
Date/Time
WST
Temp

°C
Wind Pressure Rain
since 9am
mm
Weather Cloud Vis
km
Sea
Height
m
Swell
Dir
 
Speed
knots
Gust
knots
hPa Trend Height
m
Period
s
Dir
12/11:30pm 13.7 S 4 6 1020.1 - 0.0 - - - - - - -
12/11:00pm 13.1 SSW 3 5 1020.0 - 0.0 - - - - - - -
12/10:30pm 13.8 S 3 4 1020.2 - 0.0 - - - - - - -
12/10:00pm 14.4 S 3 4 1020.2 - 0.0 - - - - - - -
12/09:30pm 14.4 SSW 3 5 1020.1 - 0.0 - - - - - - -
12/09:00pm 14.9 SW 5 8 1020.1 - 0.0 - - - - - - -
12/08:30pm 15.3 SW 7 10 1020.3 - 0.0 - - - - - - -
12/08:00pm 15.3 W 4 11 1020.2 - 0.0 - - - - - - -
12/07:30pm 12.2 NNW 1 1 1019.8 - 0.0 - - - - - - -
12/07:00pm 12.8 NW 1 2 1019.8 - 0.0 - - - - - - -
12/06:30pm 14.5 NW 1 2 1019.6 - 0.0 - - - - - - -
12/06:00pm 15.8 NW 3 6 1019.3 - 0.0 - - - - - - -
12/05:30pm 16.7 WSW 5 8 1019.5 - 0.0 - - - - - - -
12/05:00pm 18.1 W 10 14 1019.3 - 0.0 - - - - - - -
12/04:30pm 19.3 W 8 15 1019.2 - 0.0 - - - - - - -
12/04:00pm 18.7 W 8 13 1019.2 - 0.0 - - - - - - -
12/03:30pm 18.7 W 10 16 1019.2 - 0.0 - - - - - - -
12/03:00pm 19.0 WNW 8 12 1019.0 - 0.0 - - - - - - -
12/02:30pm 19.1 NNW 7 11 1018.9 - 0.0 - - - - - - -
12/02:00pm 20.3 NW 7 10 1019.1 - 0.0 - - - - - - -
12/01:30pm 20.0 NW 8 11 1019.2 - 0.0 - - - - - - -
12/01:00pm 20.0 NNW 8 11 1019.5 - 0.0 - - - - - - -
12/12:30pm 19.9 N 9 13 1019.7 - 0.0 - - - - - - -
12/12:00pm 19.9 N 8 13 1019.8 - 0.0 - - - - - - -

Other Formats:

Comma delimited format used in spreadsheet applications
http://www.bom.gov.au/fwo/IDW60701/IDW60701.94604.axf

JavaScript Object Notation format (JSON) in row-major order
http://www.bom.gov.au/fwo/IDW60701/IDW60701.94604.json